<?xml version="1.0" encoding="UTF-8" standalone="no" ?>
<gpx xmlns="http://www.topografix.com/GPX/1/1" xmlns:xsi="http://www.w3.org/2001/XMLSchema-instance" xsi:schemaLocation="http://www.topografix.com/GPX/1/1 http://www.topografix.com/GPX/1/1/gpx.xsd" version="1.1" creator="VisuGPX - https://www.visugpx.com">
  <metadata>
    <name>Balade du 15/02/2017</name>
    <desc><![CDATA[ 2h30 de balade par temps doux et les premières primevères ...]]></desc>
  </metadata>
  <trk>
    <name><![CDATA[15 févr. 2017]]></name>
    <cmt><![CDATA[13:28:22]]></cmt>
    <desc><![CDATA[comment ...]]></desc>
    <trkseg>
      <trkpt lat="45.79793" lon="5.34318">
        <ele>369</ele>
        <time>2017-02-15T12:28:23Z</time>
      </trkpt>
      <trkpt lat="45.79793" lon="5.34319">
        <ele>368</ele>
        <time>2017-02-15T12:28:24Z</time>
      </trkpt>
      <trkpt lat="45.79798" lon="5.34324">
        <ele>362</ele>
        <time>2017-02-15T12:28:30Z</time>
      </trkpt>
      <trkpt lat="45.798" lon="5.34313">
        <ele>362</ele>
        <time>2017-02-15T12:28:36Z</time>
      </trkpt>
      <trkpt lat="45.798" lon="5.34308">
        <ele>362</ele>
        <time>2017-02-15T12:29:07Z</time>
      </trkpt>
      <trkpt lat="45.79803" lon="5.343">
        <ele>362</ele>
        <time>2017-02-15T12:29:30Z</time>
      </trkpt>
      <trkpt lat="45.79805" lon="5.34293">
        <ele>362</ele>
        <time>2017-02-15T12:29:33Z</time>
      </trkpt>
      <trkpt lat="45.79809" lon="5.34252">
        <ele>362</ele>
        <time>2017-02-15T12:29:54Z</time>
      </trkpt>
      <trkpt lat="45.79815" lon="5.34244">
        <ele>362</ele>
        <time>2017-02-15T12:30:03Z</time>
      </trkpt>
      <trkpt lat="45.7982" lon="5.34234">
        <ele>362</ele>
        <time>2017-02-15T12:30:09Z</time>
      </trkpt>
      <trkpt lat="45.79841" lon="5.34224">
        <ele>362</ele>
        <time>2017-02-15T12:30:39Z</time>
      </trkpt>
      <trkpt lat="45.79854" lon="5.34219">
        <ele>362</ele>
        <time>2017-02-15T12:30:49Z</time>
      </trkpt>
      <trkpt lat="45.79869" lon="5.34211">
        <ele>363</ele>
        <time>2017-02-15T12:30:58Z</time>
      </trkpt>
      <trkpt lat="45.79906" lon="5.34175">
        <ele>364</ele>
        <time>2017-02-15T12:31:30Z</time>
      </trkpt>
      <trkpt lat="45.79918" lon="5.34151">
        <ele>366</ele>
        <time>2017-02-15T12:31:44Z</time>
      </trkpt>
      <trkpt lat="45.79933" lon="5.34097">
        <ele>364</ele>
        <time>2017-02-15T12:32:16Z</time>
      </trkpt>
      <trkpt lat="45.79939" lon="5.34095">
        <ele>363</ele>
        <time>2017-02-15T12:32:30Z</time>
      </trkpt>
      <trkpt lat="45.79972" lon="5.34118">
        <ele>365</ele>
        <time>2017-02-15T12:33:02Z</time>
      </trkpt>
      <trkpt lat="45.79977" lon="5.34124">
        <ele>366</ele>
        <time>2017-02-15T12:33:07Z</time>
      </trkpt>
      <trkpt lat="45.79983" lon="5.34141">
        <ele>366</ele>
        <time>2017-02-15T12:33:18Z</time>
      </trkpt>
      <trkpt lat="45.79986" lon="5.34162">
        <ele>367</ele>
        <time>2017-02-15T12:33:32Z</time>
      </trkpt>
      <trkpt lat="45.79984" lon="5.34182">
        <ele>367</ele>
        <time>2017-02-15T12:33:44Z</time>
      </trkpt>
      <trkpt lat="45.79976" lon="5.34198">
        <ele>368</ele>
        <time>2017-02-15T12:33:57Z</time>
      </trkpt>
      <trkpt lat="45.79961" lon="5.34276">
        <ele>371</ele>
        <time>2017-02-15T12:34:32Z</time>
      </trkpt>
      <trkpt lat="45.79959" lon="5.34344">
        <ele>374</ele>
        <time>2017-02-15T12:35:03Z</time>
      </trkpt>
      <trkpt lat="45.7997" lon="5.3438">
        <ele>373</ele>
        <time>2017-02-15T12:35:18Z</time>
      </trkpt>
      <trkpt lat="45.79973" lon="5.34393">
        <ele>372</ele>
        <time>2017-02-15T12:35:25Z</time>
      </trkpt>
      <trkpt lat="45.80002" lon="5.34438">
        <ele>374</ele>
        <time>2017-02-15T12:35:53Z</time>
      </trkpt>
      <trkpt lat="45.80009" lon="5.34448">
        <ele>375</ele>
        <time>2017-02-15T12:35:59Z</time>
      </trkpt>
      <trkpt lat="45.80034" lon="5.34479">
        <ele>378</ele>
        <time>2017-02-15T12:36:20Z</time>
      </trkpt>
      <trkpt lat="45.80049" lon="5.34482">
        <ele>377</ele>
        <time>2017-02-15T12:36:28Z</time>
      </trkpt>
      <trkpt lat="45.80065" lon="5.3448">
        <ele>377</ele>
        <time>2017-02-15T12:36:39Z</time>
      </trkpt>
      <trkpt lat="45.8011" lon="5.34473">
        <ele>375</ele>
        <time>2017-02-15T12:37:12Z</time>
      </trkpt>
      <trkpt lat="45.8013" lon="5.34465">
        <ele>375</ele>
        <time>2017-02-15T12:37:27Z</time>
      </trkpt>
      <trkpt lat="45.80145" lon="5.34457">
        <ele>375</ele>
        <time>2017-02-15T12:37:39Z</time>
      </trkpt>
      <trkpt lat="45.80184" lon="5.34427">
        <ele>374</ele>
        <time>2017-02-15T12:38:09Z</time>
      </trkpt>
      <trkpt lat="45.80216" lon="5.34382">
        <ele>374</ele>
        <time>2017-02-15T12:38:41Z</time>
      </trkpt>
      <trkpt lat="45.80222" lon="5.3436">
        <ele>372</ele>
        <time>2017-02-15T12:38:49Z</time>
      </trkpt>
      <trkpt lat="45.80221" lon="5.34349">
        <ele>371</ele>
        <time>2017-02-15T12:38:54Z</time>
      </trkpt>
      <trkpt lat="45.8022" lon="5.34322">
        <ele>368</ele>
        <time>2017-02-15T12:39:07Z</time>
      </trkpt>
      <trkpt lat="45.80195" lon="5.3427">
        <ele>365</ele>
        <time>2017-02-15T12:39:39Z</time>
      </trkpt>
      <trkpt lat="45.80187" lon="5.34255">
        <ele>363</ele>
        <time>2017-02-15T12:39:48Z</time>
      </trkpt>
      <trkpt lat="45.80183" lon="5.34227">
        <ele>361</ele>
        <time>2017-02-15T12:40:06Z</time>
      </trkpt>
      <trkpt lat="45.80181" lon="5.34184">
        <ele>363</ele>
        <time>2017-02-15T12:40:27Z</time>
      </trkpt>
      <trkpt lat="45.80194" lon="5.34149">
        <ele>366</ele>
        <time>2017-02-15T12:40:50Z</time>
      </trkpt>
      <trkpt lat="45.80193" lon="5.34139">
        <ele>367</ele>
        <time>2017-02-15T12:40:54Z</time>
      </trkpt>
      <trkpt lat="45.80193" lon="5.3413">
        <ele>374</ele>
        <time>2017-02-15T12:42:15Z</time>
      </trkpt>
      <trkpt lat="45.80196" lon="5.3413">
        <ele>374</ele>
        <time>2017-02-15T12:42:33Z</time>
      </trkpt>
      <trkpt lat="45.80191" lon="5.34121">
        <ele>374</ele>
        <time>2017-02-15T12:42:38Z</time>
      </trkpt>
      <trkpt lat="45.80161" lon="5.34071">
        <ele>360</ele>
        <time>2017-02-15T12:43:12Z</time>
      </trkpt>
      <trkpt lat="45.80153" lon="5.34066">
        <ele>359</ele>
        <time>2017-02-15T12:43:17Z</time>
      </trkpt>
      <trkpt lat="45.80143" lon="5.34045">
        <ele>357</ele>
        <time>2017-02-15T12:43:32Z</time>
      </trkpt>
      <trkpt lat="45.8013" lon="5.34017">
        <ele>356</ele>
        <time>2017-02-15T12:43:46Z</time>
      </trkpt>
      <trkpt lat="45.80125" lon="5.3401">
        <ele>356</ele>
        <time>2017-02-15T12:43:50Z</time>
      </trkpt>
      <trkpt lat="45.80135" lon="5.34008">
        <ele>357</ele>
        <time>2017-02-15T12:44:14Z</time>
      </trkpt>
      <trkpt lat="45.80147" lon="5.34012">
        <ele>359</ele>
        <time>2017-02-15T12:44:23Z</time>
      </trkpt>
      <trkpt lat="45.80195" lon="5.34036">
        <ele>363</ele>
        <time>2017-02-15T12:44:53Z</time>
      </trkpt>
      <trkpt lat="45.80236" lon="5.34056">
        <ele>368</ele>
        <time>2017-02-15T12:45:24Z</time>
      </trkpt>
      <trkpt lat="45.80285" lon="5.34075">
        <ele>370</ele>
        <time>2017-02-15T12:45:58Z</time>
      </trkpt>
      <trkpt lat="45.80331" lon="5.34106">
        <ele>371</ele>
        <time>2017-02-15T12:46:30Z</time>
      </trkpt>
      <trkpt lat="45.8035" lon="5.34112">
        <ele>372</ele>
        <time>2017-02-15T12:46:44Z</time>
      </trkpt>
      <trkpt lat="45.80408" lon="5.34124">
        <ele>378</ele>
        <time>2017-02-15T12:47:18Z</time>
      </trkpt>
      <trkpt lat="45.80426" lon="5.34124">
        <ele>380</ele>
        <time>2017-02-15T12:47:32Z</time>
      </trkpt>
      <trkpt lat="45.80435" lon="5.34113">
        <ele>381</ele>
        <time>2017-02-15T12:47:40Z</time>
      </trkpt>
      <trkpt lat="45.80442" lon="5.34049">
        <ele>379</ele>
        <time>2017-02-15T12:48:09Z</time>
      </trkpt>
      <trkpt lat="45.80443" lon="5.34037">
        <ele>380</ele>
        <time>2017-02-15T12:48:16Z</time>
      </trkpt>
      <trkpt lat="45.80432" lon="5.33967">
        <ele>382</ele>
        <time>2017-02-15T12:48:45Z</time>
      </trkpt>
      <trkpt lat="45.80429" lon="5.33936">
        <ele>382</ele>
        <time>2017-02-15T12:49:00Z</time>
      </trkpt>
      <trkpt lat="45.80431" lon="5.3389">
        <ele>380</ele>
        <time>2017-02-15T12:49:21Z</time>
      </trkpt>
      <trkpt lat="45.80434" lon="5.3387">
        <ele>384</ele>
        <time>2017-02-15T12:49:31Z</time>
      </trkpt>
      <trkpt lat="45.80438" lon="5.33836">
        <ele>385</ele>
        <time>2017-02-15T12:49:45Z</time>
      </trkpt>
      <trkpt lat="45.80444" lon="5.33815">
        <ele>384</ele>
        <time>2017-02-15T12:49:57Z</time>
      </trkpt>
      <trkpt lat="45.80446" lon="5.33804">
        <ele>385</ele>
        <time>2017-02-15T12:50:02Z</time>
      </trkpt>
      <trkpt lat="45.80451" lon="5.33775">
        <ele>385</ele>
        <time>2017-02-15T12:50:14Z</time>
      </trkpt>
      <trkpt lat="45.8045" lon="5.33747">
        <ele>382</ele>
        <time>2017-02-15T12:50:27Z</time>
      </trkpt>
      <trkpt lat="45.80453" lon="5.33735">
        <ele>381</ele>
        <time>2017-02-15T12:50:33Z</time>
      </trkpt>
      <trkpt lat="45.80451" lon="5.33723">
        <ele>380</ele>
        <time>2017-02-15T12:50:38Z</time>
      </trkpt>
      <trkpt lat="45.80447" lon="5.33717">
        <ele>379</ele>
        <time>2017-02-15T12:50:40Z</time>
      </trkpt>
      <trkpt lat="45.80444" lon="5.33709">
        <ele>379</ele>
        <time>2017-02-15T12:50:43Z</time>
      </trkpt>
      <trkpt lat="45.80445" lon="5.33699">
        <ele>378</ele>
        <time>2017-02-15T12:50:48Z</time>
      </trkpt>
      <trkpt lat="45.80446" lon="5.33683">
        <ele>377</ele>
        <time>2017-02-15T12:50:54Z</time>
      </trkpt>
      <trkpt lat="45.80452" lon="5.33664">
        <ele>375</ele>
        <time>2017-02-15T12:51:03Z</time>
      </trkpt>
      <trkpt lat="45.8045" lon="5.33639">
        <ele>374</ele>
        <time>2017-02-15T12:51:12Z</time>
      </trkpt>
      <trkpt lat="45.80461" lon="5.33575">
        <ele>378</ele>
        <time>2017-02-15T12:51:43Z</time>
      </trkpt>
      <trkpt lat="45.80468" lon="5.33537">
        <ele>380</ele>
        <time>2017-02-15T12:51:59Z</time>
      </trkpt>
      <trkpt lat="45.8047" lon="5.33516">
        <ele>381</ele>
        <time>2017-02-15T12:52:08Z</time>
      </trkpt>
      <trkpt lat="45.80475" lon="5.33444">
        <ele>378</ele>
        <time>2017-02-15T12:52:30Z</time>
      </trkpt>
      <trkpt lat="45.80507" lon="5.33339">
        <ele>373</ele>
        <time>2017-02-15T12:52:52Z</time>
      </trkpt>
      <trkpt lat="45.80557" lon="5.33245">
        <ele>376</ele>
        <time>2017-02-15T12:53:24Z</time>
      </trkpt>
      <trkpt lat="45.80577" lon="5.33185">
        <ele>378</ele>
        <time>2017-02-15T12:53:54Z</time>
      </trkpt>
      <trkpt lat="45.80579" lon="5.33174">
        <ele>378</ele>
        <time>2017-02-15T12:53:59Z</time>
      </trkpt>
      <trkpt lat="45.80583" lon="5.33118">
        <ele>376</ele>
        <time>2017-02-15T12:54:21Z</time>
      </trkpt>
      <trkpt lat="45.80581" lon="5.33047">
        <ele>373</ele>
        <time>2017-02-15T12:54:51Z</time>
      </trkpt>
      <trkpt lat="45.80579" lon="5.32969">
        <ele>369</ele>
        <time>2017-02-15T12:55:23Z</time>
      </trkpt>
      <trkpt lat="45.80577" lon="5.32958">
        <ele>369</ele>
        <time>2017-02-15T12:55:27Z</time>
      </trkpt>
      <trkpt lat="45.80569" lon="5.32935">
        <ele>368</ele>
        <time>2017-02-15T12:55:37Z</time>
      </trkpt>
      <trkpt lat="45.80571" lon="5.32927">
        <ele>368</ele>
        <time>2017-02-15T12:55:40Z</time>
      </trkpt>
      <trkpt lat="45.80567" lon="5.32913">
        <ele>369</ele>
        <time>2017-02-15T12:55:45Z</time>
      </trkpt>
      <trkpt lat="45.80548" lon="5.32898">
        <ele>369</ele>
        <time>2017-02-15T12:55:54Z</time>
      </trkpt>
      <trkpt lat="45.80507" lon="5.32871">
        <ele>363</ele>
        <time>2017-02-15T12:56:20Z</time>
      </trkpt>
      <trkpt lat="45.80493" lon="5.32872">
        <ele>363</ele>
        <time>2017-02-15T12:56:30Z</time>
      </trkpt>
      <trkpt lat="45.80464" lon="5.32877">
        <ele>361</ele>
        <time>2017-02-15T12:56:45Z</time>
      </trkpt>
      <trkpt lat="45.80406" lon="5.32878">
        <ele>358</ele>
        <time>2017-02-15T12:57:16Z</time>
      </trkpt>
      <trkpt lat="45.80351" lon="5.32885">
        <ele>359</ele>
        <time>2017-02-15T12:57:47Z</time>
      </trkpt>
      <trkpt lat="45.80345" lon="5.32884">
        <ele>359</ele>
        <time>2017-02-15T12:57:51Z</time>
      </trkpt>
      <trkpt lat="45.8034" lon="5.3288">
        <ele>359</ele>
        <time>2017-02-15T12:57:54Z</time>
      </trkpt>
      <trkpt lat="45.80335" lon="5.32874">
        <ele>359</ele>
        <time>2017-02-15T12:57:58Z</time>
      </trkpt>
      <trkpt lat="45.80311" lon="5.32815">
        <ele>360</ele>
        <time>2017-02-15T12:58:30Z</time>
      </trkpt>
      <trkpt lat="45.8029" lon="5.3278">
        <ele>360</ele>
        <time>2017-02-15T12:58:48Z</time>
      </trkpt>
      <trkpt lat="45.80252" lon="5.32776">
        <ele>360</ele>
        <time>2017-02-15T12:59:06Z</time>
      </trkpt>
      <trkpt lat="45.80228" lon="5.32774">
        <ele>358</ele>
        <time>2017-02-15T12:59:22Z</time>
      </trkpt>
      <trkpt lat="45.80208" lon="5.32766">
        <ele>357</ele>
        <time>2017-02-15T12:59:35Z</time>
      </trkpt>
      <trkpt lat="45.80156" lon="5.32743">
        <ele>354</ele>
        <time>2017-02-15T13:00:07Z</time>
      </trkpt>
      <trkpt lat="45.8015" lon="5.32727">
        <ele>354</ele>
        <time>2017-02-15T13:00:16Z</time>
      </trkpt>
      <trkpt lat="45.80141" lon="5.32704">
        <ele>355</ele>
        <time>2017-02-15T13:00:29Z</time>
      </trkpt>
      <trkpt lat="45.8013" lon="5.32699">
        <ele>356</ele>
        <time>2017-02-15T13:00:37Z</time>
      </trkpt>
      <trkpt lat="45.80091" lon="5.32683">
        <ele>360</ele>
        <time>2017-02-15T13:01:02Z</time>
      </trkpt>
      <trkpt lat="45.8006" lon="5.32673">
        <ele>361</ele>
        <time>2017-02-15T13:01:23Z</time>
      </trkpt>
      <trkpt lat="45.80015" lon="5.32662">
        <ele>362</ele>
        <time>2017-02-15T13:01:53Z</time>
      </trkpt>
      <trkpt lat="45.79994" lon="5.32659">
        <ele>361</ele>
        <time>2017-02-15T13:02:09Z</time>
      </trkpt>
      <trkpt lat="45.79974" lon="5.32647">
        <ele>362</ele>
        <time>2017-02-15T13:02:22Z</time>
      </trkpt>
      <trkpt lat="45.79969" lon="5.32643">
        <ele>362</ele>
        <time>2017-02-15T13:02:25Z</time>
      </trkpt>
      <trkpt lat="45.79929" lon="5.32625">
        <ele>359</ele>
        <time>2017-02-15T13:02:52Z</time>
      </trkpt>
      <trkpt lat="45.79918" lon="5.32622">
        <ele>358</ele>
        <time>2017-02-15T13:03:00Z</time>
      </trkpt>
      <trkpt lat="45.79902" lon="5.32614">
        <ele>357</ele>
        <time>2017-02-15T13:03:10Z</time>
      </trkpt>
      <trkpt lat="45.79867" lon="5.32604">
        <ele>356</ele>
        <time>2017-02-15T13:03:30Z</time>
      </trkpt>
      <trkpt lat="45.79824" lon="5.3261">
        <ele>354</ele>
        <time>2017-02-15T13:03:53Z</time>
      </trkpt>
      <trkpt lat="45.79795" lon="5.32628">
        <ele>353</ele>
        <time>2017-02-15T13:04:11Z</time>
      </trkpt>
      <trkpt lat="45.79784" lon="5.32649">
        <ele>352</ele>
        <time>2017-02-15T13:04:21Z</time>
      </trkpt>
      <trkpt lat="45.79744" lon="5.32686">
        <ele>349</ele>
        <time>2017-02-15T13:04:51Z</time>
      </trkpt>
      <trkpt lat="45.79733" lon="5.32694">
        <ele>348</ele>
        <time>2017-02-15T13:05:01Z</time>
      </trkpt>
      <trkpt lat="45.79728" lon="5.3269">
        <ele>346</ele>
        <time>2017-02-15T13:05:14Z</time>
      </trkpt>
      <trkpt lat="45.79722" lon="5.32681">
        <ele>344</ele>
        <time>2017-02-15T13:05:19Z</time>
      </trkpt>
      <trkpt lat="45.79714" lon="5.32679">
        <ele>344</ele>
        <time>2017-02-15T13:05:21Z</time>
      </trkpt>
      <trkpt lat="45.79704" lon="5.3268">
        <ele>343</ele>
        <time>2017-02-15T13:05:23Z</time>
      </trkpt>
      <trkpt lat="45.79691" lon="5.32689">
        <ele>342</ele>
        <time>2017-02-15T13:05:31Z</time>
      </trkpt>
      <trkpt lat="45.79679" lon="5.32703">
        <ele>342</ele>
        <time>2017-02-15T13:05:42Z</time>
      </trkpt>
      <trkpt lat="45.79669" lon="5.32739">
        <ele>342</ele>
        <time>2017-02-15T13:06:00Z</time>
      </trkpt>
      <trkpt lat="45.79647" lon="5.32806">
        <ele>342</ele>
        <time>2017-02-15T13:06:33Z</time>
      </trkpt>
      <trkpt lat="45.79639" lon="5.32808">
        <ele>341</ele>
        <time>2017-02-15T13:06:40Z</time>
      </trkpt>
      <trkpt lat="45.7963" lon="5.32794">
        <ele>340</ele>
        <time>2017-02-15T13:06:50Z</time>
      </trkpt>
      <trkpt lat="45.79604" lon="5.3274">
        <ele>339</ele>
        <time>2017-02-15T13:07:19Z</time>
      </trkpt>
      <trkpt lat="45.79593" lon="5.32719">
        <ele>340</ele>
        <time>2017-02-15T13:07:31Z</time>
      </trkpt>
      <trkpt lat="45.79572" lon="5.32656">
        <ele>343</ele>
        <time>2017-02-15T13:08:02Z</time>
      </trkpt>
      <trkpt lat="45.79544" lon="5.32613">
        <ele>345</ele>
        <time>2017-02-15T13:08:30Z</time>
      </trkpt>
      <trkpt lat="45.7952" lon="5.32608">
        <ele>345</ele>
        <time>2017-02-15T13:08:44Z</time>
      </trkpt>
      <trkpt lat="45.79499" lon="5.32603">
        <ele>343</ele>
        <time>2017-02-15T13:09:00Z</time>
      </trkpt>
      <trkpt lat="45.79483" lon="5.32589">
        <ele>342</ele>
        <time>2017-02-15T13:09:12Z</time>
      </trkpt>
      <trkpt lat="45.79461" lon="5.32571">
        <ele>342</ele>
        <time>2017-02-15T13:09:25Z</time>
      </trkpt>
      <trkpt lat="45.79431" lon="5.32557">
        <ele>342</ele>
        <time>2017-02-15T13:09:49Z</time>
      </trkpt>
      <trkpt lat="45.79381" lon="5.32536">
        <ele>340</ele>
        <time>2017-02-15T13:10:21Z</time>
      </trkpt>
      <trkpt lat="45.79335" lon="5.32533">
        <ele>338</ele>
        <time>2017-02-15T13:10:51Z</time>
      </trkpt>
      <trkpt lat="45.79317" lon="5.32534">
        <ele>337</ele>
        <time>2017-02-15T13:11:04Z</time>
      </trkpt>
      <trkpt lat="45.79298" lon="5.3254">
        <ele>338</ele>
        <time>2017-02-15T13:11:15Z</time>
      </trkpt>
      <trkpt lat="45.79262" lon="5.32538">
        <ele>339</ele>
        <time>2017-02-15T13:11:38Z</time>
      </trkpt>
      <trkpt lat="45.79213" lon="5.32543">
        <ele>340</ele>
        <time>2017-02-15T13:12:10Z</time>
      </trkpt>
      <trkpt lat="45.79194" lon="5.32548">
        <ele>339</ele>
        <time>2017-02-15T13:12:23Z</time>
      </trkpt>
      <trkpt lat="45.79181" lon="5.32546">
        <ele>339</ele>
        <time>2017-02-15T13:12:35Z</time>
      </trkpt>
      <trkpt lat="45.79165" lon="5.32525">
        <ele>338</ele>
        <time>2017-02-15T13:12:57Z</time>
      </trkpt>
      <trkpt lat="45.79165" lon="5.32511">
        <ele>338</ele>
        <time>2017-02-15T13:13:10Z</time>
      </trkpt>
      <trkpt lat="45.79191" lon="5.32454">
        <ele>341</ele>
        <time>2017-02-15T13:13:41Z</time>
      </trkpt>
      <trkpt lat="45.79192" lon="5.32435">
        <ele>340</ele>
        <time>2017-02-15T13:13:51Z</time>
      </trkpt>
      <trkpt lat="45.7919" lon="5.32425">
        <ele>340</ele>
        <time>2017-02-15T13:13:56Z</time>
      </trkpt>
      <trkpt lat="45.79194" lon="5.32415">
        <ele>341</ele>
        <time>2017-02-15T13:14:01Z</time>
      </trkpt>
      <trkpt lat="45.79209" lon="5.32392">
        <ele>342</ele>
        <time>2017-02-15T13:14:14Z</time>
      </trkpt>
      <trkpt lat="45.79244" lon="5.32342">
        <ele>347</ele>
        <time>2017-02-15T13:14:46Z</time>
      </trkpt>
      <trkpt lat="45.79253" lon="5.32324">
        <ele>349</ele>
        <time>2017-02-15T13:14:55Z</time>
      </trkpt>
      <trkpt lat="45.79256" lon="5.32312">
        <ele>349</ele>
        <time>2017-02-15T13:15:00Z</time>
      </trkpt>
      <trkpt lat="45.79253" lon="5.3229">
        <ele>350</ele>
        <time>2017-02-15T13:15:10Z</time>
      </trkpt>
      <trkpt lat="45.79242" lon="5.32251">
        <ele>349</ele>
        <time>2017-02-15T13:15:27Z</time>
      </trkpt>
      <trkpt lat="45.79234" lon="5.32229">
        <ele>349</ele>
        <time>2017-02-15T13:15:38Z</time>
      </trkpt>
      <trkpt lat="45.79205" lon="5.32183">
        <ele>351</ele>
        <time>2017-02-15T13:16:06Z</time>
      </trkpt>
      <trkpt lat="45.7918" lon="5.32162">
        <ele>351</ele>
        <time>2017-02-15T13:16:25Z</time>
      </trkpt>
      <trkpt lat="45.79144" lon="5.32139">
        <ele>352</ele>
        <time>2017-02-15T13:16:55Z</time>
      </trkpt>
      <trkpt lat="45.79127" lon="5.32117">
        <ele>354</ele>
        <time>2017-02-15T13:17:10Z</time>
      </trkpt>
      <trkpt lat="45.79089" lon="5.32065">
        <ele>354</ele>
        <time>2017-02-15T13:17:41Z</time>
      </trkpt>
      <trkpt lat="45.79072" lon="5.32043">
        <ele>355</ele>
        <time>2017-02-15T13:17:58Z</time>
      </trkpt>
      <trkpt lat="45.79052" lon="5.32021">
        <ele>356</ele>
        <time>2017-02-15T13:18:18Z</time>
      </trkpt>
      <trkpt lat="45.79029" lon="5.32011">
        <ele>357</ele>
        <time>2017-02-15T13:18:31Z</time>
      </trkpt>
      <trkpt lat="45.78996" lon="5.31978">
        <ele>358</ele>
        <time>2017-02-15T13:19:02Z</time>
      </trkpt>
      <trkpt lat="45.78984" lon="5.31967">
        <ele>358</ele>
        <time>2017-02-15T13:19:07Z</time>
      </trkpt>
      <trkpt lat="45.78967" lon="5.31945">
        <ele>357</ele>
        <time>2017-02-15T13:19:24Z</time>
      </trkpt>
      <trkpt lat="45.78966" lon="5.3194">
        <ele>357</ele>
        <time>2017-02-15T13:19:27Z</time>
      </trkpt>
      <trkpt lat="45.78953" lon="5.31923">
        <ele>358</ele>
        <time>2017-02-15T13:19:38Z</time>
      </trkpt>
      <trkpt lat="45.78928" lon="5.31897">
        <ele>357</ele>
        <time>2017-02-15T13:19:55Z</time>
      </trkpt>
      <trkpt lat="45.78901" lon="5.31876">
        <ele>357</ele>
        <time>2017-02-15T13:20:04Z</time>
      </trkpt>
      <trkpt lat="45.78838" lon="5.31827">
        <ele>357</ele>
        <time>2017-02-15T13:20:22Z</time>
      </trkpt>
      <trkpt lat="45.78792" lon="5.31784">
        <ele>357</ele>
        <time>2017-02-15T13:20:36Z</time>
      </trkpt>
      <trkpt lat="45.78677" lon="5.31719">
        <ele>354</ele>
        <time>2017-02-15T13:21:06Z</time>
      </trkpt>
      <trkpt lat="45.78621" lon="5.31699">
        <ele>357</ele>
        <time>2017-02-15T13:21:22Z</time>
      </trkpt>
      <trkpt lat="45.78608" lon="5.31685">
        <ele>357</ele>
        <time>2017-02-15T13:21:27Z</time>
      </trkpt>
      <trkpt lat="45.78564" lon="5.31629">
        <ele>358</ele>
        <time>2017-02-15T13:22:02Z</time>
      </trkpt>
      <trkpt lat="45.78547" lon="5.316">
        <ele>358</ele>
        <time>2017-02-15T13:22:18Z</time>
      </trkpt>
      <trkpt lat="45.78532" lon="5.31587">
        <ele>358</ele>
        <time>2017-02-15T13:22:28Z</time>
      </trkpt>
      <trkpt lat="45.78481" lon="5.3156">
        <ele>355</ele>
        <time>2017-02-15T13:22:58Z</time>
      </trkpt>
      <trkpt lat="45.78429" lon="5.3152">
        <ele>353</ele>
        <time>2017-02-15T13:23:31Z</time>
      </trkpt>
      <trkpt lat="45.78409" lon="5.31495">
        <ele>353</ele>
        <time>2017-02-15T13:23:45Z</time>
      </trkpt>
      <trkpt lat="45.78406" lon="5.31484">
        <ele>352</ele>
        <time>2017-02-15T13:23:49Z</time>
      </trkpt>
      <trkpt lat="45.78402" lon="5.31466">
        <ele>351</ele>
        <time>2017-02-15T13:23:56Z</time>
      </trkpt>
      <trkpt lat="45.78397" lon="5.31459">
        <ele>350</ele>
        <time>2017-02-15T13:24:01Z</time>
      </trkpt>
      <trkpt lat="45.78392" lon="5.31452">
        <ele>350</ele>
        <time>2017-02-15T13:24:05Z</time>
      </trkpt>
      <trkpt lat="45.78384" lon="5.31447">
        <ele>349</ele>
        <time>2017-02-15T13:24:12Z</time>
      </trkpt>
      <trkpt lat="45.7837" lon="5.31455">
        <ele>349</ele>
        <time>2017-02-15T13:24:20Z</time>
      </trkpt>
      <trkpt lat="45.78363" lon="5.31461">
        <ele>349</ele>
        <time>2017-02-15T13:24:25Z</time>
      </trkpt>
      <trkpt lat="45.78342" lon="5.31489">
        <ele>349</ele>
        <time>2017-02-15T13:24:41Z</time>
      </trkpt>
      <trkpt lat="45.78304" lon="5.31545">
        <ele>354</ele>
        <time>2017-02-15T13:25:12Z</time>
      </trkpt>
      <trkpt lat="45.78269" lon="5.31603">
        <ele>356</ele>
        <time>2017-02-15T13:25:42Z</time>
      </trkpt>
      <trkpt lat="45.78253" lon="5.3162">
        <ele>356</ele>
        <time>2017-02-15T13:25:54Z</time>
      </trkpt>
      <trkpt lat="45.78234" lon="5.31628">
        <ele>355</ele>
        <time>2017-02-15T13:26:06Z</time>
      </trkpt>
      <trkpt lat="45.78185" lon="5.31644">
        <ele>350</ele>
        <time>2017-02-15T13:26:36Z</time>
      </trkpt>
      <trkpt lat="45.78156" lon="5.31666">
        <ele>349</ele>
        <time>2017-02-15T13:26:54Z</time>
      </trkpt>
      <trkpt lat="45.78139" lon="5.31694">
        <ele>349</ele>
        <time>2017-02-15T13:27:09Z</time>
      </trkpt>
      <trkpt lat="45.78114" lon="5.31743">
        <ele>352</ele>
        <time>2017-02-15T13:27:39Z</time>
      </trkpt>
      <trkpt lat="45.78105" lon="5.31768">
        <ele>353</ele>
        <time>2017-02-15T13:27:52Z</time>
      </trkpt>
      <trkpt lat="45.78084" lon="5.31799">
        <ele>355</ele>
        <time>2017-02-15T13:28:12Z</time>
      </trkpt>
      <trkpt lat="45.78053" lon="5.31832">
        <ele>357</ele>
        <time>2017-02-15T13:28:39Z</time>
      </trkpt>
      <trkpt lat="45.78025" lon="5.31855">
        <ele>359</ele>
        <time>2017-02-15T13:28:56Z</time>
      </trkpt>
      <trkpt lat="45.78016" lon="5.31873">
        <ele>359</ele>
        <time>2017-02-15T13:29:05Z</time>
      </trkpt>
      <trkpt lat="45.77997" lon="5.31891">
        <ele>359</ele>
        <time>2017-02-15T13:29:18Z</time>
      </trkpt>
      <trkpt lat="45.77964" lon="5.31939">
        <ele>362</ele>
        <time>2017-02-15T13:29:50Z</time>
      </trkpt>
      <trkpt lat="45.77928" lon="5.3199">
        <ele>365</ele>
        <time>2017-02-15T13:30:20Z</time>
      </trkpt>
      <trkpt lat="45.77892" lon="5.32044">
        <ele>366</ele>
        <time>2017-02-15T13:30:50Z</time>
      </trkpt>
      <trkpt lat="45.7788" lon="5.3206">
        <ele>366</ele>
        <time>2017-02-15T13:31:00Z</time>
      </trkpt>
      <trkpt lat="45.7786" lon="5.32073">
        <ele>367</ele>
        <time>2017-02-15T13:31:14Z</time>
      </trkpt>
      <trkpt lat="45.77826" lon="5.32101">
        <ele>368</ele>
        <time>2017-02-15T13:31:41Z</time>
      </trkpt>
      <trkpt lat="45.77799" lon="5.32112">
        <ele>367</ele>
        <time>2017-02-15T13:32:01Z</time>
      </trkpt>
      <trkpt lat="45.77746" lon="5.3213">
        <ele>366</ele>
        <time>2017-02-15T13:32:32Z</time>
      </trkpt>
      <trkpt lat="45.77719" lon="5.32147">
        <ele>366</ele>
        <time>2017-02-15T13:32:49Z</time>
      </trkpt>
      <trkpt lat="45.77669" lon="5.32186">
        <ele>366</ele>
        <time>2017-02-15T13:33:21Z</time>
      </trkpt>
      <trkpt lat="45.77631" lon="5.32234">
        <ele>363</ele>
        <time>2017-02-15T13:33:50Z</time>
      </trkpt>
      <trkpt lat="45.77593" lon="5.32293">
        <ele>360</ele>
        <time>2017-02-15T13:34:20Z</time>
      </trkpt>
      <trkpt lat="45.77566" lon="5.32333">
        <ele>359</ele>
        <time>2017-02-15T13:34:42Z</time>
      </trkpt>
      <trkpt lat="45.77542" lon="5.32362">
        <ele>357</ele>
        <time>2017-02-15T13:35:01Z</time>
      </trkpt>
      <trkpt lat="45.77528" lon="5.32384">
        <ele>356</ele>
        <time>2017-02-15T13:35:14Z</time>
      </trkpt>
      <trkpt lat="45.77514" lon="5.32415">
        <ele>355</ele>
        <time>2017-02-15T13:35:29Z</time>
      </trkpt>
      <trkpt lat="45.775" lon="5.32438">
        <ele>354</ele>
        <time>2017-02-15T13:35:40Z</time>
      </trkpt>
      <trkpt lat="45.7749" lon="5.32445">
        <ele>354</ele>
        <time>2017-02-15T13:35:47Z</time>
      </trkpt>
      <trkpt lat="45.77453" lon="5.32454">
        <ele>352</ele>
        <time>2017-02-15T13:36:10Z</time>
      </trkpt>
      <trkpt lat="45.77439" lon="5.32464">
        <ele>351</ele>
        <time>2017-02-15T13:36:19Z</time>
      </trkpt>
      <trkpt lat="45.77437" lon="5.32471">
        <ele>352</ele>
        <time>2017-02-15T13:36:22Z</time>
      </trkpt>
      <trkpt lat="45.77437" lon="5.32488">
        <ele>352</ele>
        <time>2017-02-15T13:36:29Z</time>
      </trkpt>
      <trkpt lat="45.77435" lon="5.32537">
        <ele>351</ele>
        <time>2017-02-15T13:36:51Z</time>
      </trkpt>
      <trkpt lat="45.77424" lon="5.3256">
        <ele>351</ele>
        <time>2017-02-15T13:37:03Z</time>
      </trkpt>
      <trkpt lat="45.7742" lon="5.32564">
        <ele>352</ele>
        <time>2017-02-15T13:37:06Z</time>
      </trkpt>
      <trkpt lat="45.7741" lon="5.32566">
        <ele>351</ele>
        <time>2017-02-15T13:37:15Z</time>
      </trkpt>
      <trkpt lat="45.77395" lon="5.32568">
        <ele>350</ele>
        <time>2017-02-15T13:37:24Z</time>
      </trkpt>
      <trkpt lat="45.7739" lon="5.32575">
        <ele>349</ele>
        <time>2017-02-15T13:37:28Z</time>
      </trkpt>
      <trkpt lat="45.77383" lon="5.3259">
        <ele>349</ele>
        <time>2017-02-15T13:37:35Z</time>
      </trkpt>
      <trkpt lat="45.77378" lon="5.32594">
        <ele>349</ele>
        <time>2017-02-15T13:37:38Z</time>
      </trkpt>
      <trkpt lat="45.77368" lon="5.32593">
        <ele>349</ele>
        <time>2017-02-15T13:37:46Z</time>
      </trkpt>
      <trkpt lat="45.77342" lon="5.32592">
        <ele>348</ele>
        <time>2017-02-15T13:38:05Z</time>
      </trkpt>
      <trkpt lat="45.77327" lon="5.32608">
        <ele>347</ele>
        <time>2017-02-15T13:38:17Z</time>
      </trkpt>
      <trkpt lat="45.77326" lon="5.32632">
        <ele>346</ele>
        <time>2017-02-15T13:38:27Z</time>
      </trkpt>
      <trkpt lat="45.77327" lon="5.32664">
        <ele>345</ele>
        <time>2017-02-15T13:38:39Z</time>
      </trkpt>
      <trkpt lat="45.77318" lon="5.32705">
        <ele>345</ele>
        <time>2017-02-15T13:38:59Z</time>
      </trkpt>
      <trkpt lat="45.77307" lon="5.32742">
        <ele>345</ele>
        <time>2017-02-15T13:39:18Z</time>
      </trkpt>
      <trkpt lat="45.77284" lon="5.32807">
        <ele>347</ele>
        <time>2017-02-15T13:39:48Z</time>
      </trkpt>
      <trkpt lat="45.77272" lon="5.32833">
        <ele>347</ele>
        <time>2017-02-15T13:40:02Z</time>
      </trkpt>
      <trkpt lat="45.77254" lon="5.32872">
        <ele>346</ele>
        <time>2017-02-15T13:40:21Z</time>
      </trkpt>
      <trkpt lat="45.77246" lon="5.32899">
        <ele>347</ele>
        <time>2017-02-15T13:40:33Z</time>
      </trkpt>
      <trkpt lat="45.77246" lon="5.32909">
        <ele>347</ele>
        <time>2017-02-15T13:40:36Z</time>
      </trkpt>
      <trkpt lat="45.77253" lon="5.32917">
        <ele>347</ele>
        <time>2017-02-15T13:40:41Z</time>
      </trkpt>
      <trkpt lat="45.77269" lon="5.32923">
        <ele>346</ele>
        <time>2017-02-15T13:40:50Z</time>
      </trkpt>
      <trkpt lat="45.77291" lon="5.3293">
        <ele>346</ele>
        <time>2017-02-15T13:41:04Z</time>
      </trkpt>
      <trkpt lat="45.7729" lon="5.32939">
        <ele>346</ele>
        <time>2017-02-15T13:41:11Z</time>
      </trkpt>
      <trkpt lat="45.77271" lon="5.33">
        <ele>348</ele>
        <time>2017-02-15T13:41:42Z</time>
      </trkpt>
      <trkpt lat="45.7726" lon="5.33039">
        <ele>349</ele>
        <time>2017-02-15T13:41:58Z</time>
      </trkpt>
      <trkpt lat="45.77254" lon="5.33075">
        <ele>348</ele>
        <time>2017-02-15T13:42:15Z</time>
      </trkpt>
      <trkpt lat="45.77253" lon="5.33102">
        <ele>348</ele>
        <time>2017-02-15T13:42:27Z</time>
      </trkpt>
      <trkpt lat="45.7726" lon="5.33125">
        <ele>348</ele>
        <time>2017-02-15T13:42:34Z</time>
      </trkpt>
      <trkpt lat="45.7727" lon="5.33147">
        <ele>347</ele>
        <time>2017-02-15T13:42:38Z</time>
      </trkpt>
      <trkpt lat="45.77336" lon="5.3331">
        <ele>346</ele>
        <time>2017-02-15T13:43:08Z</time>
      </trkpt>
      <trkpt lat="45.77361" lon="5.33378">
        <ele>346</ele>
        <time>2017-02-15T13:43:21Z</time>
      </trkpt>
      <trkpt lat="45.77386" lon="5.33446">
        <ele>341</ele>
        <time>2017-02-15T13:43:33Z</time>
      </trkpt>
      <trkpt lat="45.77441" lon="5.33602">
        <ele>344</ele>
        <time>2017-02-15T13:44:05Z</time>
      </trkpt>
      <trkpt lat="45.77439" lon="5.33627">
        <ele>344</ele>
        <time>2017-02-15T13:44:17Z</time>
      </trkpt>
      <trkpt lat="45.77431" lon="5.33683">
        <ele>345</ele>
        <time>2017-02-15T13:44:37Z</time>
      </trkpt>
      <trkpt lat="45.77425" lon="5.33696">
        <ele>344</ele>
        <time>2017-02-15T13:44:43Z</time>
      </trkpt>
      <trkpt lat="45.77406" lon="5.33729">
        <ele>344</ele>
        <time>2017-02-15T13:45:02Z</time>
      </trkpt>
      <trkpt lat="45.77388" lon="5.3381">
        <ele>344</ele>
        <time>2017-02-15T13:45:35Z</time>
      </trkpt>
      <trkpt lat="45.77369" lon="5.33877">
        <ele>342</ele>
        <time>2017-02-15T13:46:07Z</time>
      </trkpt>
      <trkpt lat="45.77362" lon="5.33902">
        <ele>341</ele>
        <time>2017-02-15T13:46:17Z</time>
      </trkpt>
      <trkpt lat="45.77362" lon="5.33926">
        <ele>340</ele>
        <time>2017-02-15T13:46:29Z</time>
      </trkpt>
      <trkpt lat="45.77365" lon="5.33978">
        <ele>338</ele>
        <time>2017-02-15T13:46:50Z</time>
      </trkpt>
      <trkpt lat="45.77357" lon="5.33993">
        <ele>339</ele>
        <time>2017-02-15T13:47:00Z</time>
      </trkpt>
    </trkseg>
  </trk>
</gpx>